sensor_id;sensor_type;location;lat;lon;timestamp;temperature;humidity
21722;DHT22;11023;48.274;7.794;2023-10-13T00:00:33;20.50;99.90
21722;DHT22;11023;48.274;7.794;2023-10-13T00:03:06;20.50;99.90
21722;DHT22;11023;48.274;7.794;2023-10-13T00:05:34;20.50;99.90
21722;DHT22;11023;48.274;7.794;2023-10-13T00:08:02;20.50;99.90
21722;DHT22;11023;48.274;7.794;2023-10-13T00:10:32;20.40;99.90
21722;DHT22;11023;48.274;7.794;2023-10-13T00:13:01;20.40;99.90
21722;DHT22;11023;48.274;7.794;2023-10-13T00:15:48;20.30;99.90
21722;DHT22;11023;48.274;7.794;2023-10-13T00:18:33;20.30;99.90
21722;DHT22;11023;48.274;7.794;2023-10-13T00:21:02;20.20;99.90
21722;DHT22;11023;48.274;7.794;2023-10-13T00:23:47;20.20;99.90
21722;DHT22;11023;48.274;7.794;2023-10-13T00:26:24;20.10;99.90
21722;DHT22;11023;48.274;7.794;2023-10-13T00:28:53;20.20;99.90
21722;DHT22;11023;48.274;7.794;2023-10-13T00:31:40;20.10;99.90
21722;DHT22;11023;48.274;7.794;2023-10-13T00:34:12;20.10;99.90
21722;DHT22;11023;48.274;7.794;2023-10-13T00:36:38;20.10;99.90
21722;DHT22;11023;48.274;7.794;2023-10-13T00:39:15;20.10;99.90
21722;DHT22;11023;48.274;7.794;2023-10-13T00:41:43;20.10;99.90
21722;DHT22;11023;48.274;7.794;2023-10-13T00:44:20;20.10;99.90
21722;DHT22;11023;48.274;7.794;2023-10-13T00:47:04;20.10;99.90
21722;DHT22;11023;48.274;7.794;2023-10-13T00:49:34;20.00;99.90
21722;DHT22;11023;48.274;7.794;2023-10-13T00:52:06;20.00;99.90
21722;DHT22;11023;48.274;7.794;2023-10-13T00:54:34;20.00;99.90
21722;DHT22;11023;48.274;7.794;2023-10-13T00:57:03;19.90;99.90
21722;DHT22;11023;48.274;7.794;2023-10-13T00:59:56;19.90;99.90
21722;DHT22;11023;48.274;7.794;2023-10-13T01:02:25;19.80;99.90
21722;DHT22;11023;48.274;7.794;2023-10-13T01:05:08;19.80;99.90
21722;DHT22;11023;48.274;7.794;2023-10-13T01:07:35;19.70;99.90
21722;DHT22;11023;48.274;7.794;2023-10-13T01:10:10;19.70;99.90
21722;DHT22;11023;48.274;7.794;2023-10-13T01:12:40;19.60;99.90
21722;DHT22;11023;48.274;7.794;2023-10-13T01:15:08;19.60;99.90
21722;DHT22;11023;48.274;7.794;2023-10-13T01:17:36;19.60;99.90
21722;DHT22;11023;48.274;7.794;2023-10-13T01:20:03;19.50;99.90
21722;DHT22;11023;48.274;7.794;2023-10-13T01:22:30;19.50;99.90
21722;DHT22;11023;48.274;7.794;2023-10-13T01:24:57;19.40;99.90
21722;DHT22;11023;48.274;7.794;2023-10-13T01:27:37;19.40;99.90
21722;DHT22;11023;48.274;7.794;2023-10-13T01:30:05;19.30;99.90
21722;DHT22;11023;48.274;7.794;2023-10-13T01:32:36;19.30;99.90
21722;DHT22;11023;48.274;7.794;2023-10-13T01:35:10;19.20;99.90
21722;DHT22;11023;48.274;7.794;2023-10-13T01:37:36;19.20;99.90
21722;DHT22;11023;48.274;7.794;2023-10-13T01:40:02;19.10;99.90
21722;DHT22;11023;48.274;7.794;2023-10-13T01:42:29;19.00;99.90
21722;DHT22;11023;48.274;7.794;2023-10-13T01:44:56;18.90;99.90
21722;DHT22;11023;48.274;7.794;2023-10-13T01:47:32;18.70;99.90
21722;DHT22;11023;48.274;7.794;2023-10-13T01:50:01;18.60;99.90
21722;DHT22;11023;48.274;7.794;2023-10-13T01:52:39;18.50;99.90
21722;DHT22;11023;48.274;7.794;2023-10-13T01:55:04;18.50;99.90
21722;DHT22;11023;48.274;7.794;2023-10-13T01:57:32;18.50;99.90
21722;DHT22;11023;48.274;7.794;2023-10-13T01:59:58;18.40;99.90
21722;DHT22;11023;48.274;7.794;2023-10-13T02:02:34;18.30;99.90
21722;DHT22;11023;48.274;7.794;2023-10-13T02:04:59;18.00;99.90
21722;DHT22;11023;48.274;7.794;2023-10-13T02:07:28;18.00;99.90
21722;DHT22;11023;48.274;7.794;2023-10-13T02:10:00;17.80;99.90
21722;DHT22;11023;48.274;7.794;2023-10-13T02:12:30;17.80;99.90
21722;DHT22;11023;48.274;7.794;2023-10-13T02:15:10;17.70;99.90
21722;DHT22;11023;48.274;7.794;2023-10-13T02:17:38;17.60;99.90
21722;DHT22;11023;48.274;7.794;2023-10-13T02:20:08;17.50;99.90
21722;DHT22;11023;48.274;7.794;2023-10-13T02:22:39;17.50;99.90
21722;DHT22;11023;48.274;7.794;2023-10-13T02:25:15;17.50;99.90
21722;DHT22;11023;48.274;7.794;2023-10-13T02:27:50;17.50;99.90
21722;DHT22;11023;48.274;7.794;2023-10-13T02:30:23;17.40;99.90
21722;DHT22;11023;48.274;7.794;2023-10-13T02:32:51;17.40;99.90
21722;DHT22;11023;48.274;7.794;2023-10-13T02:35:18;17.40;99.90
21722;DHT22;11023;48.274;7.794;2023-10-13T02:37:55;17.30;99.90
21722;DHT22;11023;48.274;7.794;2023-10-13T02:40:23;17.30;99.90
21722;DHT22;11023;48.274;7.794;2023-10-13T02:42:49;17.30;99.90
21722;DHT22;11023;48.274;7.794;2023-10-13T02:45:15;17.30;99.90
21722;DHT22;11023;48.274;7.794;2023-10-13T02:47:43;17.30;99.90
21722;DHT22;11023;48.274;7.794;2023-10-13T02:50:09;17.30;99.90
21722;DHT22;11023;48.274;7.794;2023-10-13T02:52:43;17.30;99.90
21722;DHT22;11023;48.274;7.794;2023-10-13T02:55:13;17.20;99.90
21722;DHT22;11023;48.274;7.794;2023-10-13T02:57:42;17.20;99.90
21722;DHT22;11023;48.274;7.794;2023-10-13T03:00:08;17.20;99.90
21722;DHT22;11023;48.274;7.794;2023-10-13T03:02:41;17.10;99.90
21722;DHT22;11023;48.274;7.794;2023-10-13T03:05:12;17.10;99.90
21722;DHT22;11023;48.274;7.794;2023-10-13T03:07:40;17.10;99.90
21722;DHT22;11023;48.274;7.794;2023-10-13T03:10:09;17.00;99.90
21722;DHT22;11023;48.274;7.794;2023-10-13T03:12:39;17.00;99.90
21722;DHT22;11023;48.274;7.794;2023-10-13T03:15:06;17.00;99.90
21722;DHT22;11023;48.274;7.794;2023-10-13T03:17:46;16.90;99.90
21722;DHT22;11023;48.274;7.794;2023-10-13T03:20:14;16.90;99.90
21722;DHT22;11023;48.274;7.794;2023-10-13T03:22:44;16.80;99.90
21722;DHT22;11023;48.274;7.794;2023-10-13T03:25:13;16.70;99.90
21722;DHT22;11023;48.274;7.794;2023-10-13T03:27:58;16.70;99.90
21722;DHT22;11023;48.274;7.794;2023-10-13T03:30:24;16.60;99.90
21722;DHT22;11023;48.274;7.794;2023-10-13T03:33:02;16.70;99.90
21722;DHT22;11023;48.274;7.794;2023-10-13T03:35:33;16.70;99.90
21722;DHT22;11023;48.274;7.794;2023-10-13T03:38:10;16.70;99.90
21722;DHT22;11023;48.274;7.794;2023-10-13T03:40:44;16.70;99.90
21722;DHT22;11023;48.274;7.794;2023-10-13T03:43:42;16.70;99.90
21722;DHT22;11023;48.274;7.794;2023-10-13T03:46:11;16.70;99.90
21722;DHT22;11023;48.274;7.794;2023-10-13T03:48:37;16.70;99.90
21722;DHT22;11023;48.274;7.794;2023-10-13T03:51:19;16.60;99.90
21722;DHT22;11023;48.274;7.794;2023-10-13T03:53:45;16.60;99.90
21722;DHT22;11023;48.274;7.794;2023-10-13T03:56:25;16.60;99.90
21722;DHT22;11023;48.274;7.794;2023-10-13T03:59:05;16.50;99.90
21722;DHT22;11023;48.274;7.794;2023-10-13T04:01:43;16.40;99.90
21722;DHT22;11023;48.274;7.794;2023-10-13T04:04:09;16.40;99.90
21722;DHT22;11023;48.274;7.794;2023-10-13T04:06:38;16.40;99.90
21722;DHT22;11023;48.274;7.794;2023-10-13T04:09:20;16.40;99.90
21722;DHT22;11023;48.274;7.794;2023-10-13T04:12:01;16.50;99.90
21722;DHT22;11023;48.274;7.794;2023-10-13T04:14:31;16.40;99.90
21722;DHT22;11023;48.274;7.794;2023-10-13T04:17:15;16.40;99.90
21722;DHT22;11023;48.274;7.794;2023-10-13T04:19:44;16.30;99.90
21722;DHT22;11023;48.274;7.794;2023-10-13T04:22:28;16.30;99.90
21722;DHT22;11023;48.274;7.794;2023-10-13T04:25:13;16.20;99.90
21722;DHT22;11023;48.274;7.794;2023-10-13T04:27:58;16.20;99.90
21722;DHT22;11023;48.274;7.794;2023-10-13T04:30:49;16.20;99.90
21722;DHT22;11023;48.274;7.794;2023-10-13T04:33:24;16.10;99.90
21722;DHT22;11023;48.274;7.794;2023-10-13T04:36:09;16.10;99.90
21722;DHT22;11023;48.274;7.794;2023-10-13T04:38:54;16.00;99.90
21722;DHT22;11023;48.274;7.794;2023-10-13T04:41:34;15.90;99.90
21722;DHT22;11023;48.274;7.794;2023-10-13T04:44:24;15.80;99.90
21722;DHT22;11023;48.274;7.794;2023-10-13T04:46:57;15.70;99.90
21722;DHT22;11023;48.274;7.794;2023-10-13T04:49:29;15.60;99.90
21722;DHT22;11023;48.274;7.794;2023-10-13T04:52:15;15.50;99.90
21722;DHT22;11023;48.274;7.794;2023-10-13T04:55:00;15.30;99.90
21722;DHT22;11023;48.274;7.794;2023-10-13T04:57:55;15.20;99.90
21722;DHT22;11023;48.274;7.794;2023-10-13T05:00:41;15.10;99.90
21722;DHT22;11023;48.274;7.794;2023-10-13T05:03:36;15.00;99.90
21722;DHT22;11023;48.274;7.794;2023-10-13T05:06:20;15.00;99.90
21722;DHT22;11023;48.274;7.794;2023-10-13T05:09:09;15.00;99.90
21722;DHT22;11023;48.274;7.794;2023-10-13T05:11:54;15.10;99.90
21722;DHT22;11023;48.274;7.794;2023-10-13T05:14:40;15.10;99.90
21722;DHT22;11023;48.274;7.794;2023-10-13T05:17:24;15.00;99.90
21722;DHT22;11023;48.274;7.794;2023-10-13T05:20:08;15.10;99.90
21722;DHT22;11023;48.274;7.794;2023-10-13T05:22:53;15.10;99.90
21722;DHT22;11023;48.274;7.794;2023-10-13T05:25:38;15.20;99.90
21722;DHT22;11023;48.274;7.794;2023-10-13T05:28:22;15.20;99.90
21722;DHT22;11023;48.274;7.794;2023-10-13T05:31:07;15.10;99.90
21722;DHT22;11023;48.274;7.794;2023-10-13T05:33:51;15.10;99.90
21722;DHT22;11023;48.274;7.794;2023-10-13T05:36:36;15.10;99.90
21722;DHT22;11023;48.274;7.794;2023-10-13T05:39:20;15.00;99.90
21722;DHT22;11023;48.274;7.794;2023-10-13T05:42:05;15.10;99.90
21722;DHT22;11023;48.274;7.794;2023-10-13T05:44:50;15.10;99.90
21722;DHT22;11023;48.274;7.794;2023-10-13T05:47:35;15.00;99.90
21722;DHT22;11023;48.274;7.794;2023-10-13T05:50:27;15.00;99.90
21722;DHT22;11023;48.274;7.794;2023-10-13T05:53:12;15.00;99.90
21722;DHT22;11023;48.274;7.794;2023-10-13T05:55:38;15.00;99.90
21722;DHT22;11023;48.274;7.794;2023-10-13T05:58:22;14.90;99.90
21722;DHT22;11023;48.274;7.794;2023-10-13T06:01:12;14.90;99.90
21722;DHT22;11023;48.274;7.794;2023-10-13T06:03:56;15.00;99.90
21722;DHT22;11023;48.274;7.794;2023-10-13T06:06:40;15.00;99.90
21722;DHT22;11023;48.274;7.794;2023-10-13T06:09:24;15.00;99.90
21722;DHT22;11023;48.274;7.794;2023-10-13T06:12:09;15.00;99.90
21722;DHT22;11023;48.274;7.794;2023-10-13T06:14:53;15.00;99.90
21722;DHT22;11023;48.274;7.794;2023-10-13T06:17:37;15.00;99.90
21722;DHT22;11023;48.274;7.794;2023-10-13T06:20:21;15.10;99.90
21722;DHT22;11023;48.274;7.794;2023-10-13T06:23:05;15.20;99.90
21722;DHT22;11023;48.274;7.794;2023-10-13T06:25:53;15.30;99.90
21722;DHT22;11023;48.274;7.794;2023-10-13T06:28:38;15.40;99.90
21722;DHT22;11023;48.274;7.794;2023-10-13T06:31:07;15.50;99.90
21722;DHT22;11023;48.274;7.794;2023-10-13T06:33:34;15.60;99.90
21722;DHT22;11023;48.274;7.794;2023-10-13T06:36:04;15.70;99.90
21722;DHT22;11023;48.274;7.794;2023-10-13T06:38:36;15.80;99.90
21722;DHT22;11023;48.274;7.794;2023-10-13T06:41:03;16.00;99.90
21722;DHT22;11023;48.274;7.794;2023-10-13T06:43:36;16.00;99.90
21722;DHT22;11023;48.274;7.794;2023-10-13T06:46:14;16.10;99.90
21722;DHT22;11023;48.274;7.794;2023-10-13T06:48:40;16.20;99.90
21722;DHT22;11023;48.274;7.794;2023-10-13T06:51:07;16.30;99.90
21722;DHT22;11023;48.274;7.794;2023-10-13T06:53:52;16.40;99.90
21722;DHT22;11023;48.274;7.794;2023-10-13T06:56:22;16.50;99.90
21722;DHT22;11023;48.274;7.794;2023-10-13T06:58:51;16.60;99.90
21722;DHT22;11023;48.274;7.794;2023-10-13T07:01:17;16.60;99.90
21722;DHT22;11023;48.274;7.794;2023-10-13T07:03:48;16.70;99.90
21722;DHT22;11023;48.274;7.794;2023-10-13T07:06:19;16.70;99.90
21722;DHT22;11023;48.274;7.794;2023-10-13T07:08:47;16.80;99.90
21722;DHT22;11023;48.274;7.794;2023-10-13T07:11:26;17.00;99.90
21722;DHT22;11023;48.274;7.794;2023-10-13T07:14:07;17.00;99.90
21722;DHT22;11023;48.274;7.794;2023-10-13T07:19:24;17.20;99.90
21722;DHT22;11023;48.274;7.794;2023-10-13T07:21:57;17.20;99.90
21722;DHT22;11023;48.274;7.794;2023-10-13T07:24:45;17.30;99.90
21722;DHT22;11023;48.274;7.794;2023-10-13T07:27:18;17.40;99.90
21722;DHT22;11023;48.274;7.794;2023-10-13T07:29:57;17.50;99.90
21722;DHT22;11023;48.274;7.794;2023-10-13T07:32:42;17.50;99.90
21722;DHT22;11023;48.274;7.794;2023-10-13T07:35:20;17.60;99.90
21722;DHT22;11023;48.274;7.794;2023-10-13T07:37:50;17.60;99.90
21722;DHT22;11023;48.274;7.794;2023-10-13T07:40:21;17.70;99.90
21722;DHT22;11023;48.274;7.794;2023-10-13T07:42:55;17.80;99.90
21722;DHT22;11023;48.274;7.794;2023-10-13T07:45:29;17.80;99.90
21722;DHT22;11023;48.274;7.794;2023-10-13T07:48:11;18.00;99.90
21722;DHT22;11023;48.274;7.794;2023-10-13T07:51:07;18.00;99.90
21722;DHT22;11023;48.274;7.794;2023-10-13T07:53:41;18.20;99.90
21722;DHT22;11023;48.274;7.794;2023-10-13T07:56:09;18.30;99.90
21722;DHT22;11023;48.274;7.794;2023-10-13T07:58:38;18.40;99.90
21722;DHT22;11023;48.274;7.794;2023-10-13T08:01:33;18.50;99.90
21722;DHT22;11023;48.274;7.794;2023-10-13T08:03:59;18.60;99.90
21722;DHT22;11023;48.274;7.794;2023-10-13T08:06:38;18.70;99.90
21722;DHT22;11023;48.274;7.794;2023-10-13T08:09:09;18.90;99.90
21722;DHT22;11023;48.274;7.794;2023-10-13T08:11:36;18.90;99.90
21722;DHT22;11023;48.274;7.794;2023-10-13T08:14:04;19.10;99.90
21722;DHT22;11023;48.274;7.794;2023-10-13T08:16:47;19.20;99.90
21722;DHT22;11023;48.274;7.794;2023-10-13T08:19:22;19.30;99.90
21722;DHT22;11023;48.274;7.794;2023-10-13T08:21:58;19.40;99.90
21722;DHT22;11023;48.274;7.794;2023-10-13T08:24:25;19.50;99.90
21722;DHT22;11023;48.274;7.794;2023-10-13T08:27:12;19.60;99.90
21722;DHT22;11023;48.274;7.794;2023-10-13T08:29:57;19.70;99.90
21722;DHT22;11023;48.274;7.794;2023-10-13T08:32:24;19.90;99.90
21722;DHT22;11023;48.274;7.794;2023-10-13T08:35:02;20.00;99.90
21722;DHT22;11023;48.274;7.794;2023-10-13T08:37:30;20.10;99.90
21722;DHT22;11023;48.274;7.794;2023-10-13T08:40:01;20.30;99.90
21722;DHT22;11023;48.274;7.794;2023-10-13T08:42:37;20.50;99.90
21722;DHT22;11023;48.274;7.794;2023-10-13T08:45:09;20.70;99.90
21722;DHT22;11023;48.274;7.794;2023-10-13T08:47:58;20.90;99.90
21722;DHT22;11023;48.274;7.794;2023-10-13T08:50:43;21.20;99.90
21722;DHT22;11023;48.274;7.794;2023-10-13T08:53:31;21.50;99.90
21722;DHT22;11023;48.274;7.794;2023-10-13T08:56:00;21.80;99.90
21722;DHT22;11023;48.274;7.794;2023-10-13T08:58:43;22.00;99.90
21722;DHT22;11023;48.274;7.794;2023-10-13T09:07:04;22.60;99.90
21722;DHT22;11023;48.274;7.794;2023-10-13T09:12:23;22.70;99.90
21722;DHT22;11023;48.274;7.794;2023-10-13T09:18:02;22.80;99.90
21722;DHT22;11023;48.274;7.794;2023-10-13T09:20:41;22.90;99.90
21722;DHT22;11023;48.274;7.794;2023-10-13T09:23:14;23.00;99.90
21722;DHT22;11023;48.274;7.794;2023-10-13T09:25:50;23.10;99.90
21722;DHT22;11023;48.274;7.794;2023-10-13T09:28:35;23.20;99.90
21722;DHT22;11023;48.274;7.794;2023-10-13T09:31:03;23.40;99.90
21722;DHT22;11023;48.274;7.794;2023-10-13T09:33:33;23.50;99.90
21722;DHT22;11023;48.274;7.794;2023-10-13T09:36:02;23.70;99.90
21722;DHT22;11023;48.274;7.794;2023-10-13T09:38:32;23.90;99.90
21722;DHT22;11023;48.274;7.794;2023-10-13T09:40:59;24.00;99.90
21722;DHT22;11023;48.274;7.794;2023-10-13T09:43:46;24.10;99.90
21722;DHT22;11023;48.274;7.794;2023-10-13T09:46:19;24.30;99.90
21722;DHT22;11023;48.274;7.794;2023-10-13T09:48:46;24.30;99.90
21722;DHT22;11023;48.274;7.794;2023-10-13T09:51:14;24.40;99.90
21722;DHT22;11023;48.274;7.794;2023-10-13T09:53:52;24.40;99.90
21722;DHT22;11023;48.274;7.794;2023-10-13T09:56:28;24.40;99.90
21722;DHT22;11023;48.274;7.794;2023-10-13T09:59:26;24.30;99.90
21722;DHT22;11023;48.274;7.794;2023-10-13T10:02:01;24.30;99.90
21722;DHT22;11023;48.274;7.794;2023-10-13T10:04:34;24.20;99.90
21722;DHT22;11023;48.274;7.794;2023-10-13T10:07:11;24.30;99.90
21722;DHT22;11023;48.274;7.794;2023-10-13T10:09:37;24.30;99.90
21722;DHT22;11023;48.274;7.794;2023-10-13T10:15:36;24.50;99.90
21722;DHT22;11023;48.274;7.794;2023-10-13T10:18:22;24.70;99.90
21722;DHT22;11023;48.274;7.794;2023-10-13T10:20:50;24.90;99.90
21722;DHT22;11023;48.274;7.794;2023-10-13T10:23:28;25.10;99.90
21722;DHT22;11023;48.274;7.794;2023-10-13T10:25:55;25.20;99.90
21722;DHT22;11023;48.274;7.794;2023-10-13T10:28:41;25.40;99.90
21722;DHT22;11023;48.274;7.794;2023-10-13T10:31:12;25.50;99.90
21722;DHT22;11023;48.274;7.794;2023-10-13T10:33:38;25.70;99.90
21722;DHT22;11023;48.274;7.794;2023-10-13T10:36:05;25.70;99.90
21722;DHT22;11023;48.274;7.794;2023-10-13T10:38:31;25.90;99.90
21722;DHT22;11023;48.274;7.794;2023-10-13T10:40:58;26.00;99.90
21722;DHT22;11023;48.274;7.794;2023-10-13T10:43:28;26.10;99.90
21722;DHT22;11023;48.274;7.794;2023-10-13T10:45:59;26.20;99.70
21722;DHT22;11023;48.274;7.794;2023-10-13T10:48:28;26.30;99.80
21722;DHT22;11023;48.274;7.794;2023-10-13T10:51:04;26.60;99.30
21722;DHT22;11023;48.274;7.794;2023-10-13T10:53:39;26.70;98.70
21722;DHT22;11023;48.274;7.794;2023-10-13T10:56:12;26.80;98.90
21722;DHT22;11023;48.274;7.794;2023-10-13T10:58:58;26.90;98.60
21722;DHT22;11023;48.274;7.794;2023-10-13T11:01:27;27.00;98.30
21722;DHT22;11023;48.274;7.794;2023-10-13T11:04:00;27.10;98.00
21722;DHT22;11023;48.274;7.794;2023-10-13T11:06:55;27.20;97.40
21722;DHT22;11023;48.274;7.794;2023-10-13T11:09:34;27.30;96.80
21722;DHT22;11023;48.274;7.794;2023-10-13T11:12:13;27.30;96.70
21722;DHT22;11023;48.274;7.794;2023-10-13T11:15:06;27.40;96.50
21722;DHT22;11023;48.274;7.794;2023-10-13T11:17:51;27.60;96.20
21722;DHT22;11023;48.274;7.794;2023-10-13T11:20:20;27.70;96.30
21722;DHT22;11023;48.274;7.794;2023-10-13T11:23:11;27.80;95.80
21722;DHT22;11023;48.274;7.794;2023-10-13T11:25:37;27.90;95.60
21722;DHT22;11023;48.274;7.794;2023-10-13T11:28:14;28.00;95.20
21722;DHT22;11023;48.274;7.794;2023-10-13T11:30:49;28.10;94.70
21722;DHT22;11023;48.274;7.794;2023-10-13T11:33:45;28.20;94.10
21722;DHT22;11023;48.274;7.794;2023-10-13T11:36:16;28.30;94.10
21722;DHT22;11023;48.274;7.794;2023-10-13T11:38:57;28.40;93.80
21722;DHT22;11023;48.274;7.794;2023-10-13T11:41:23;28.40;93.60
21722;DHT22;11023;48.274;7.794;2023-10-13T11:43:58;28.50;93.30
21722;DHT22;11023;48.274;7.794;2023-10-13T11:46:49;28.60;93.80
21722;DHT22;11023;48.274;7.794;2023-10-13T11:49:23;28.70;93.20
21722;DHT22;11023;48.274;7.794;2023-10-13T11:51:55;28.80;92.80
21722;DHT22;11023;48.274;7.794;2023-10-13T11:54:35;28.80;92.90
21722;DHT22;11023;48.274;7.794;2023-10-13T11:57:07;28.90;93.00
21722;DHT22;11023;48.274;7.794;2023-10-13T11:59:33;29.00;92.40
21722;DHT22;11023;48.274;7.794;2023-10-13T12:02:01;29.00;92.30
21722;DHT22;11023;48.274;7.794;2023-10-13T12:04:46;29.10;92.10
21722;DHT22;11023;48.274;7.794;2023-10-13T12:07:20;29.20;91.80
21722;DHT22;11023;48.274;7.794;2023-10-13T12:09:50;29.30;91.70
21722;DHT22;11023;48.274;7.794;2023-10-13T12:12:30;29.40;92.00
21722;DHT22;11023;48.274;7.794;2023-10-13T12:15:06;29.60;91.30
21722;DHT22;11023;48.274;7.794;2023-10-13T12:17:35;29.70;91.20
21722;DHT22;11023;48.274;7.794;2023-10-13T12:20:02;29.70;90.80
21722;DHT22;11023;48.274;7.794;2023-10-13T12:22:36;29.80;90.30
21722;DHT22;11023;48.274;7.794;2023-10-13T12:25:10;29.90;90.40
21722;DHT22;11023;48.274;7.794;2023-10-13T12:28:00;29.90;90.20
21722;DHT22;11023;48.274;7.794;2023-10-13T12:30:47;30.10;90.00
21722;DHT22;11023;48.274;7.794;2023-10-13T12:33:22;30.10;89.40
21722;DHT22;11023;48.274;7.794;2023-10-13T12:35:58;30.20;89.10
21722;DHT22;11023;48.274;7.794;2023-10-13T12:38:48;30.20;88.50
21722;DHT22;11023;48.274;7.794;2023-10-13T12:41:20;30.30;86.60
21722;DHT22;11023;48.274;7.794;2023-10-13T12:44:06;30.30;86.50
21722;DHT22;11023;48.274;7.794;2023-10-13T12:46:51;30.30;85.20
21722;DHT22;11023;48.274;7.794;2023-10-13T12:49:36;30.30;84.40
21722;DHT22;11023;48.274;7.794;2023-10-13T12:52:15;30.30;84.70
21722;DHT22;11023;48.274;7.794;2023-10-13T12:54:45;30.20;84.30
21722;DHT22;11023;48.274;7.794;2023-10-13T12:57:27;30.10;83.00
21722;DHT22;11023;48.274;7.794;2023-10-13T12:59:54;30.00;83.70
21722;DHT22;11023;48.274;7.794;2023-10-13T13:02:21;30.20;82.50
21722;DHT22;11023;48.274;7.794;2023-10-13T13:04:47;30.30;82.10
21722;DHT22;11023;48.274;7.794;2023-10-13T13:07:20;30.40;80.90
21722;DHT22;11023;48.274;7.794;2023-10-13T13:09:45;30.50;81.30
21722;DHT22;11023;48.274;7.794;2023-10-13T13:12:11;30.60;81.80
21722;DHT22;11023;48.274;7.794;2023-10-13T13:14:41;30.80;80.40
21722;DHT22;11023;48.274;7.794;2023-10-13T13:17:12;30.90;80.20
21722;DHT22;11023;48.274;7.794;2023-10-13T13:19:38;31.10;78.70
21722;DHT22;11023;48.274;7.794;2023-10-13T13:22:08;31.20;78.40
21722;DHT22;11023;48.274;7.794;2023-10-13T13:24:41;31.20;76.90
21722;DHT22;11023;48.274;7.794;2023-10-13T13:27:14;31.30;77.70
21722;DHT22;11023;48.274;7.794;2023-10-13T13:29:41;31.30;76.70
21722;DHT22;11023;48.274;7.794;2023-10-13T13:32:08;31.30;74.30
21722;DHT22;11023;48.274;7.794;2023-10-13T13:34:43;31.40;74.10
21722;DHT22;11023;48.274;7.794;2023-10-13T13:37:09;31.30;72.40
21722;DHT22;11023;48.274;7.794;2023-10-13T13:39:38;31.30;72.90
21722;DHT22;11023;48.274;7.794;2023-10-13T13:42:11;31.40;72.70
21722;DHT22;11023;48.274;7.794;2023-10-13T13:44:46;31.40;72.20
21722;DHT22;11023;48.274;7.794;2023-10-13T13:47:15;31.50;72.40
21722;DHT22;11023;48.274;7.794;2023-10-13T13:49:41;31.50;72.20
21722;DHT22;11023;48.274;7.794;2023-10-13T13:52:12;31.30;71.80
21722;DHT22;11023;48.274;7.794;2023-10-13T13:54:43;31.30;71.10
21722;DHT22;11023;48.274;7.794;2023-10-13T13:57:09;31.10;70.00
21722;DHT22;11023;48.274;7.794;2023-10-13T13:59:35;30.90;70.40
21722;DHT22;11023;48.274;7.794;2023-10-13T14:02:02;30.90;70.30
21722;DHT22;11023;48.274;7.794;2023-10-13T14:04:48;31.00;70.30
21722;DHT22;11023;48.274;7.794;2023-10-13T14:07:21;31.30;70.60
21722;DHT22;11023;48.274;7.794;2023-10-13T14:09:49;31.30;69.30
21722;DHT22;11023;48.274;7.794;2023-10-13T14:12:19;31.40;69.10
21722;DHT22;11023;48.274;7.794;2023-10-13T14:15:03;31.40;67.80
21722;DHT22;11023;48.274;7.794;2023-10-13T14:17:29;31.50;67.40
21722;DHT22;11023;48.274;7.794;2023-10-13T14:19:58;31.50;67.20
21722;DHT22;11023;48.274;7.794;2023-10-13T14:22:25;31.60;67.20
21722;DHT22;11023;48.274;7.794;2023-10-13T14:24:51;31.60;66.80
21722;DHT22;11023;48.274;7.794;2023-10-13T14:27:20;31.80;66.20
21722;DHT22;11023;48.274;7.794;2023-10-13T14:29:49;31.80;66.10
21722;DHT22;11023;48.274;7.794;2023-10-13T14:32:19;31.80;66.00
21722;DHT22;11023;48.274;7.794;2023-10-13T14:34:47;31.80;65.10
21722;DHT22;11023;48.274;7.794;2023-10-13T14:37:19;31.80;65.80
21722;DHT22;11023;48.274;7.794;2023-10-13T14:39:56;31.80;65.30
21722;DHT22;11023;48.274;7.794;2023-10-13T14:42:26;31.70;65.30
21722;DHT22;11023;48.274;7.794;2023-10-13T14:44:52;31.70;65.60
21722;DHT22;11023;48.274;7.794;2023-10-13T14:47:24;31.70;65.60
21722;DHT22;11023;48.274;7.794;2023-10-13T14:49:56;31.60;66.20
21722;DHT22;11023;48.274;7.794;2023-10-13T14:52:25;31.70;66.20
21722;DHT22;11023;48.274;7.794;2023-10-13T14:54:51;31.60;65.90
21722;DHT22;11023;48.274;7.794;2023-10-13T14:57:21;31.70;66.70
21722;DHT22;11023;48.274;7.794;2023-10-13T14:59:51;31.70;67.20
21722;DHT22;11023;48.274;7.794;2023-10-13T15:02:17;31.70;66.00
21722;DHT22;11023;48.274;7.794;2023-10-13T15:04:42;31.60;66.80
21722;DHT22;11023;48.274;7.794;2023-10-13T15:07:08;31.60;65.60
21722;DHT22;11023;48.274;7.794;2023-10-13T15:09:34;31.60;66.30
21722;DHT22;11023;48.274;7.794;2023-10-13T15:12:00;31.60;65.80
21722;DHT22;11023;48.274;7.794;2023-10-13T15:14:31;31.50;66.30
21722;DHT22;11023;48.274;7.794;2023-10-13T15:16:59;31.60;66.40
21722;DHT22;11023;48.274;7.794;2023-10-13T15:19:26;31.60;66.70
21722;DHT22;11023;48.274;7.794;2023-10-13T15:21:51;31.60;66.40
21722;DHT22;11023;48.274;7.794;2023-10-13T15:24:18;31.60;66.50
21722;DHT22;11023;48.274;7.794;2023-10-13T15:26:47;31.60;66.40
21722;DHT22;11023;48.274;7.794;2023-10-13T15:29:16;31.60;66.40
21722;DHT22;11023;48.274;7.794;2023-10-13T15:31:45;31.50;66.20
21722;DHT22;11023;48.274;7.794;2023-10-13T15:34:34;31.50;66.70
21722;DHT22;11023;48.274;7.794;2023-10-13T15:37:02;31.30;67.70
21722;DHT22;11023;48.274;7.794;2023-10-13T15:39:30;31.20;68.70
21722;DHT22;11023;48.274;7.794;2023-10-13T15:41:57;31.20;70.20
21722;DHT22;11023;48.274;7.794;2023-10-13T15:44:28;31.00;69.80
21722;DHT22;11023;48.274;7.794;2023-10-13T15:46:58;30.90;70.00
21722;DHT22;11023;48.274;7.794;2023-10-13T15:49:24;30.90;70.80
21722;DHT22;11023;48.274;7.794;2023-10-13T15:51:54;30.70;71.60
21722;DHT22;11023;48.274;7.794;2023-10-13T15:54:22;30.70;72.80
21722;DHT22;11023;48.274;7.794;2023-10-13T15:56:49;30.40;74.00
21722;DHT22;11023;48.274;7.794;2023-10-13T15:59:16;30.20;74.80
21722;DHT22;11023;48.274;7.794;2023-10-13T16:01:42;30.00;74.60
21722;DHT22;11023;48.274;7.794;2023-10-13T16:04:12;29.80;75.30
21722;DHT22;11023;48.274;7.794;2023-10-13T16:06:43;29.60;76.50
21722;DHT22;11023;48.274;7.794;2023-10-13T16:09:16;29.40;77.70
21722;DHT22;11023;48.274;7.794;2023-10-13T16:11:45;29.10;78.80
21722;DHT22;11023;48.274;7.794;2023-10-13T16:14:12;28.90;80.00
21722;DHT22;11023;48.274;7.794;2023-10-13T16:16:43;28.80;81.00
21722;DHT22;11023;48.274;7.794;2023-10-13T16:19:17;28.60;81.60
21722;DHT22;11023;48.274;7.794;2023-10-13T16:21:47;28.50;82.40
21722;DHT22;11023;48.274;7.794;2023-10-13T16:24:12;28.40;81.50
21722;DHT22;11023;48.274;7.794;2023-10-13T16:29:15;28.20;80.80
21722;DHT22;11023;48.274;7.794;2023-10-13T16:31:40;28.00;80.90
21722;DHT22;11023;48.274;7.794;2023-10-13T16:34:14;27.90;82.00